createdAt,value
2022-10-05T00:01:21.463Z,0.73
2022-10-05T00:03:49.731Z,0.55
2022-10-05T00:06:17.346Z,0.60
2022-10-05T00:08:45.041Z,0.40
2022-10-05T00:11:14.623Z,0.77
2022-10-05T00:13:42.490Z,0.63
2022-10-05T00:16:15.983Z,0.30
2022-10-05T00:18:50.116Z,0.40
2022-10-05T00:21:24.041Z,0.32
2022-10-05T00:23:52.199Z,0.95
2022-10-05T00:26:22.993Z,0.20
2022-10-05T00:28:51.395Z,1.13
2022-10-05T00:31:32.899Z,1.98
2022-10-05T00:36:27.991Z,1.65
2022-10-05T00:38:55.636Z,0.82
2022-10-05T00:41:28.976Z,0.52
2022-10-05T00:44:08.474Z,1.00
2022-10-05T00:46:48.590Z,0.57
2022-10-05T00:49:38.206Z,0.45
2022-10-05T00:52:38.633Z,0.47
2022-10-05T00:55:49.084Z,0.63
2022-10-05T00:58:57.758Z,0.57
2022-10-05T01:01:34.498Z,0.82
2022-10-05T01:04:05.143Z,0.73
2022-10-05T01:06:44.809Z,0.60
2022-10-05T01:09:22.935Z,1.23
2022-10-05T01:12:14.234Z,0.40
2022-10-05T01:15:07.964Z,0.28
2022-10-05T01:17:46.285Z,0.98
2022-10-05T01:20:35.503Z,0.38
2022-10-05T01:23:33.601Z,0.38
2022-10-05T01:26:39.907Z,0.98
2022-10-05T01:29:24.957Z,0.90
2022-10-05T01:32:23.484Z,0.20
2022-10-05T01:35:05.668Z,0.40
2022-10-05T01:37:48.054Z,0.22
2022-10-05T01:40:27.719Z,1.00
2022-10-05T01:43:16.606Z,0.38
2022-10-05T01:46:02.420Z,0.68
2022-10-05T01:48:38.931Z,0.50
2022-10-05T01:51:30.824Z,0.82
2022-10-05T01:54:46.342Z,0.32
2022-10-05T01:57:52.367Z,0.38
2022-10-05T02:00:20.808Z,0.45
2022-10-05T02:02:52.839Z,0.80
2022-10-05T02:05:24.668Z,0.63
2022-10-05T02:08:03.412Z,0.73
2022-10-05T02:10:56.153Z,0.57
2022-10-05T02:13:55.960Z,0.40
2022-10-05T02:16:30.668Z,0.93
2022-10-05T02:19:03.897Z,0.73
2022-10-05T02:21:35.103Z,0.47
2022-10-05T02:29:08.997Z,0.68
2022-10-05T02:31:43.264Z,0.43
2022-10-05T02:34:27.441Z,0.40
2022-10-05T02:37:27.875Z,0.95
2022-10-05T02:40:32.884Z,0.80
2022-10-05T02:43:12.600Z,0.45
2022-10-05T02:46:04.870Z,0.30
2022-10-05T02:48:35.652Z,0.47
2022-10-05T02:51:19.148Z,0.80
2022-10-05T02:54:12.085Z,0.10
2022-10-05T02:57:05.314Z,0.38
2022-10-05T02:59:47.899Z,0.40
2022-10-05T03:02:19.629Z,0.15
2022-10-05T03:04:50.036Z,1.08
2022-10-05T03:07:27.370Z,2.08
2022-10-05T03:10:03.660Z,1.45
2022-10-05T03:12:39.395Z,0.55
2022-10-05T03:15:49.171Z,0.57
2022-10-05T03:18:35.525Z,0.85
2022-10-05T03:21:38.626Z,0.40
2022-10-05T03:24:41.072Z,1.70
2022-10-05T03:27:18.905Z,1.05
2022-10-05T03:29:52.281Z,0.38
2022-10-05T03:32:45.675Z,0.32
2022-10-05T03:35:31.934Z,0.28
2022-10-05T03:38:10.482Z,0.75
2022-10-05T03:40:41.629Z,0.85
2022-10-05T03:43:21.127Z,1.05
2022-10-05T03:45:59.266Z,0.77
2022-10-05T03:48:38.324Z,0.45
2022-10-05T03:51:13.694Z,0.40
2022-10-05T03:53:53.114Z,0.20
2022-10-05T03:56:41.934Z,0.47
2022-10-05T03:59:14.595Z,0.50
2022-10-05T04:02:11.612Z,0.30
2022-10-05T04:04:52.543Z,2.05
2022-10-05T04:07:32.124Z,0.20
2022-10-05T04:10:03.405Z,0.20
2022-10-05T04:12:40.172Z,0.98
2022-10-05T04:15:28.641Z,0.30
2022-10-05T04:18:11.518Z,0.50
2022-10-05T04:20:49.407Z,0.52
2022-10-05T04:23:49.735Z,0.88
2022-10-05T04:26:42.609Z,0.10
2022-10-05T04:29:30.359Z,0.35
2022-10-05T04:32:20.176Z,0.32
2022-10-05T04:34:54.366Z,0.10
2022-10-05T04:38:03.949Z,0.32
2022-10-05T04:41:01.794Z,1.00
2022-10-05T04:43:44.630Z,0.40
2022-10-05T04:46:41.406Z,0.80
2022-10-05T04:49:14.362Z,0.73
2022-10-05T04:52:04.134Z,0.17
2022-10-05T04:54:56.237Z,0.10
2022-10-05T04:57:51.427Z,0.47
2022-10-05T05:00:31.480Z,0.35
2022-10-05T05:03:19.847Z,0.47
2022-10-05T05:06:22.369Z,0.20
2022-10-05T05:11:52.027Z,1.35
2022-10-05T05:14:37.610Z,0.38
2022-10-05T05:17:34.329Z,0.68
2022-10-05T05:20:27.767Z,0.35
2022-10-05T05:23:34.456Z,0.90
2022-10-05T05:26:22.049Z,0.32
2022-10-05T05:29:03.984Z,0.75
2022-10-05T05:31:48.423Z,0.30
2022-10-05T05:34:40.387Z,0.55
2022-10-05T05:40:04.021Z,0.15
2022-10-05T05:42:43.016Z,0.20
2022-10-05T05:45:24.406Z,0.25
2022-10-05T05:47:59.372Z,0.45
2022-10-05T05:50:48.907Z,0.32
2022-10-05T05:53:29.857Z,0.90
2022-10-05T05:56:11.198Z,0.28
2022-10-05T05:58:50.918Z,0.10
2022-10-05T06:01:35.471Z,0.57
2022-10-05T06:04:39.230Z,0.77
2022-10-05T06:07:11.478Z,0.55
2022-10-05T06:09:51.502Z,2.97
2022-10-05T06:13:01.487Z,0.82
2022-10-05T06:15:48.940Z,0.20
2022-10-05T06:18:24.356Z,0.73
2022-10-05T06:21:19.802Z,0.20
2022-10-05T06:24:05.036Z,0.60
2022-10-05T06:27:08.607Z,0.10
2022-10-05T06:33:41.033Z,0.30
2022-10-05T06:36:42.072Z,0.20
2022-10-05T06:39:26.927Z,0.15
2022-10-05T06:42:31.984Z,0.50
2022-10-05T06:45:10.744Z,0.75
2022-10-05T06:47:54.013Z,0.50
2022-10-05T06:50:44.177Z,0.35
2022-10-05T06:53:20.387Z,0.40
2022-10-05T06:56:15.299Z,0.40
2022-10-05T06:58:57.331Z,0.20
2022-10-05T07:01:40.548Z,0.45
2022-10-05T07:04:37.362Z,1.00
2022-10-05T07:07:06.431Z,0.57
2022-10-05T07:09:55.904Z,0.75
2022-10-05T07:12:26.195Z,0.85
2022-10-05T07:15:23.645Z,0.10
2022-10-05T07:17:56.861Z,0.30
2022-10-05T07:20:34.140Z,0.30
2022-10-05T07:23:30.000Z,0.10
2022-10-05T07:26:29.999Z,0.77
2022-10-05T07:29:22.288Z,0.45
2022-10-05T07:32:11.440Z,1.45
2022-10-05T07:35:14.330Z,0.30
2022-10-05T07:37:52.121Z,0.25
2022-10-05T07:40:49.600Z,1.25
2022-10-05T07:44:00.616Z,0.52
2022-10-05T07:49:15.438Z,0.80
2022-10-05T07:51:51.033Z,0.10
2022-10-05T07:54:28.734Z,0.10
2022-10-05T07:57:24.384Z,0.15
2022-10-05T08:00:05.764Z,0.60
2022-10-05T08:02:51.516Z,0.17
2022-10-05T08:05:58.908Z,0.88
2022-10-05T08:08:39.704Z,0.10
2022-10-05T08:11:30.402Z,0.57
2022-10-05T08:14:08.185Z,0.98
2022-10-05T08:16:43.685Z,0.30
2022-10-05T08:19:32.594Z,0.55
2022-10-05T08:22:09.973Z,0.43
2022-10-05T08:24:51.476Z,0.90
2022-10-05T08:27:42.102Z,0.95
2022-10-05T08:30:15.506Z,0.77
2022-10-05T08:33:15.406Z,0.68
2022-10-05T08:35:50.247Z,0.32
2022-10-05T08:38:25.364Z,0.32
2022-10-05T08:41:18.058Z,0.73
2022-10-05T08:44:27.154Z,1.38
2022-10-05T08:47:02.290Z,1.23
2022-10-05T08:49:52.694Z,1.05
2022-10-05T08:52:21.188Z,0.88
2022-10-05T08:55:20.255Z,0.47
2022-10-05T08:57:56.702Z,1.98
2022-10-05T09:00:55.758Z,0.32
2022-10-05T09:03:51.375Z,0.70
2022-10-05T09:06:38.721Z,1.00
2022-10-05T09:09:29.849Z,0.20
2022-10-05T09:12:09.748Z,0.52
2022-10-05T09:15:20.956Z,0.43
2022-10-05T09:18:22.933Z,0.85
2022-10-05T09:20:58.890Z,0.57
2022-10-05T09:23:41.204Z,0.40
2022-10-05T09:26:55.780Z,0.65
2022-10-05T09:29:45.159Z,0.32
2022-10-05T09:32:48.332Z,0.60
2022-10-05T09:35:47.482Z,0.10
2022-10-05T09:38:31.009Z,0.45
2022-10-05T09:41:10.914Z,0.35
2022-10-05T09:44:06.240Z,0.00
2022-10-05T09:46:44.504Z,0.10
2022-10-05T09:49:39.914Z,0.20
2022-10-05T09:52:23.421Z,0.47
2022-10-05T09:55:25.802Z,0.30
2022-10-05T09:58:23.664Z,0.22
2022-10-05T10:01:09.599Z,0.10
2022-10-05T10:04:05.552Z,0.30
2022-10-05T10:07:05.809Z,0.00
2022-10-05T10:09:39.262Z,0.30
2022-10-05T10:12:28.226Z,0.55
2022-10-05T10:15:24.214Z,0.08
2022-10-05T10:18:08.632Z,0.20
2022-10-05T10:21:07.015Z,0.60
2022-10-05T10:23:37.360Z,0.10
2022-10-05T10:26:26.397Z,0.00
2022-10-05T10:29:22.892Z,0.52
2022-10-05T10:32:32.570Z,0.00
2022-10-05T10:35:32.330Z,0.30
2022-10-05T10:41:33.078Z,0.20
2022-10-05T10:44:19.470Z,0.00
2022-10-05T10:46:50.077Z,0.15
2022-10-05T10:49:55.373Z,0.32
2022-10-05T10:56:19.166Z,0.22
2022-10-05T10:58:49.536Z,0.35
2022-10-05T11:01:40.844Z,0.10
2022-10-05T11:04:35.841Z,0.10
2022-10-05T11:07:30.917Z,0.00
2022-10-05T11:10:17.180Z,0.20
2022-10-05T11:13:08.283Z,0.20
2022-10-05T11:15:57.649Z,0.32
2022-10-05T11:18:31.319Z,0.10
2022-10-05T11:21:17.459Z,0.25
2022-10-05T11:23:54.063Z,0.10
2022-10-05T11:26:59.219Z,0.20
2022-10-05T11:29:46.341Z,0.00
2022-10-05T11:32:31.111Z,0.20
2022-10-05T11:35:35.974Z,0.10
2022-10-05T11:38:36.295Z,0.15
2022-10-05T11:41:22.878Z,0.13
2022-10-05T11:44:14.904Z,0.38
2022-10-05T11:46:54.608Z,0.08
2022-10-05T11:49:58.179Z,0.10
2022-10-05T11:52:56.572Z,0.00
2022-10-05T11:55:42.225Z,0.10
2022-10-05T11:58:19.467Z,0.10
2022-10-05T12:01:09.761Z,0.30
2022-10-05T12:03:46.375Z,0.08
2022-10-05T12:06:35.042Z,0.17
2022-10-05T12:09:13.891Z,0.00
2022-10-05T12:11:58.094Z,0.45
2022-10-05T12:14:57.067Z,0.03
2022-10-05T12:17:41.262Z,0.15
2022-10-05T12:20:33.435Z,0.15
2022-10-05T12:23:21.903Z,0.10
2022-10-05T12:25:59.075Z,0.10
2022-10-05T12:28:58.933Z,0.00
2022-10-05T12:31:45.246Z,0.40
2022-10-05T12:34:35.832Z,0.20
2022-10-05T12:37:06.695Z,0.13
2022-10-05T12:39:50.956Z,0.00
2022-10-05T12:42:24.436Z,0.43
2022-10-05T12:45:17.731Z,0.00
2022-10-05T12:48:13.050Z,0.43
2022-10-05T12:50:50.077Z,0.00
2022-10-05T12:53:41.434Z,0.10
2022-10-05T12:59:09.997Z,0.22
2022-10-05T13:01:52.539Z,0.15
2022-10-05T13:04:29.262Z,0.10
2022-10-05T13:07:07.369Z,0.30
2022-10-05T13:10:11.983Z,0.00
2022-10-05T13:13:04.411Z,0.10
2022-10-05T13:15:34.913Z,0.22
2022-10-05T13:18:18.249Z,0.10
2022-10-05T13:21:09.058Z,0.20
2022-10-05T13:24:03.545Z,0.32
2022-10-05T13:26:44.411Z,0.30
2022-10-05T13:29:33.735Z,0.05
2022-10-05T13:32:11.060Z,0.15
2022-10-05T13:34:57.213Z,0.10
2022-10-05T13:37:39.853Z,0.10
2022-10-05T13:40:43.901Z,0.08
2022-10-05T13:43:32.331Z,0.57
2022-10-05T13:46:07.235Z,0.10
2022-10-05T13:49:16.291Z,0.40
2022-10-05T13:51:43.698Z,0.10
2022-10-05T13:54:34.292Z,0.40
2022-10-05T13:57:14.385Z,0.40
2022-10-05T13:59:58.274Z,0.10
2022-10-05T14:02:30.450Z,0.10
2022-10-05T14:05:04.229Z,0.43
2022-10-05T14:07:39.198Z,0.10
2022-10-05T14:10:14.408Z,0.08
2022-10-05T14:12:46.473Z,0.00
2022-10-05T14:15:28.940Z,0.17
2022-10-05T14:17:56.954Z,0.10
2022-10-05T14:20:30.114Z,0.15
2022-10-05T14:23:01.910Z,0.10
2022-10-05T14:25:31.061Z,0.10
2022-10-05T14:28:01.218Z,0.10
2022-10-05T14:30:31.007Z,0.10
2022-10-05T14:33:04.525Z,0.50
2022-10-05T14:35:55.167Z,0.13
2022-10-05T14:38:24.366Z,0.40
2022-10-05T14:41:17.145Z,0.20
2022-10-05T14:44:09.275Z,0.00
2022-10-05T14:46:37.682Z,0.20
2022-10-05T14:49:14.251Z,0.00
2022-10-05T14:51:41.788Z,0.13
2022-10-05T14:54:21.254Z,0.13
2022-10-05T14:57:07.582Z,0.22
2022-10-05T14:59:38.012Z,0.20
2022-10-05T15:02:33.017Z,0.00
2022-10-05T15:05:22.025Z,0.20
2022-10-05T15:07:52.248Z,0.13
2022-10-05T15:10:22.362Z,0.30
2022-10-05T15:12:50.284Z,0.30
2022-10-05T15:15:42.415Z,0.00
2022-10-05T15:18:16.095Z,0.20
2022-10-05T15:21:18.296Z,0.68
2022-10-05T15:24:00.783Z,0.17
2022-10-05T15:26:35.064Z,0.20
2022-10-05T15:29:19.054Z,0.30
2022-10-05T15:32:06.217Z,0.10
2022-10-05T15:34:41.294Z,0.22
2022-10-05T15:37:15.339Z,0.10
2022-10-05T15:40:01.245Z,0.50
2022-10-05T15:42:37.721Z,0.00
2022-10-05T15:45:17.296Z,0.05
2022-10-05T15:48:22.181Z,0.10
2022-10-05T15:50:56.947Z,0.22
2022-10-05T15:53:24.268Z,0.10
2022-10-05T15:56:06.418Z,0.10
2022-10-05T15:58:43.062Z,0.47
2022-10-05T16:01:16.078Z,0.10
2022-10-05T16:03:51.548Z,0.20
2022-10-05T16:06:54.265Z,0.10
2022-10-05T16:09:44.726Z,0.10
2022-10-05T16:12:30.168Z,0.00
2022-10-05T16:15:08.475Z,0.45
2022-10-05T16:18:00.666Z,0.40
2022-10-05T16:20:43.262Z,0.20
2022-10-05T16:23:22.378Z,0.40
2022-10-05T16:25:52.679Z,0.20
2022-10-05T16:28:44.617Z,0.20
2022-10-05T16:31:18.752Z,0.30
2022-10-05T16:34:16.134Z,0.10
2022-10-05T16:37:02.280Z,0.35
2022-10-05T16:39:56.418Z,0.20
2022-10-05T16:42:52.768Z,0.65
2022-10-05T16:45:44.650Z,0.20
2022-10-05T16:48:29.965Z,0.85
2022-10-05T16:51:00.138Z,0.93
2022-10-05T16:53:38.197Z,0.88
2022-10-05T16:56:22.849Z,0.80
2022-10-05T16:59:08.897Z,0.90
2022-10-05T17:02:07.417Z,0.70
2022-10-05T17:04:41.989Z,2.38
2022-10-05T17:07:54.158Z,0.55
2022-10-05T17:11:17.215Z,1.67
2022-10-05T17:13:59.938Z,0.35
2022-10-05T17:17:04.758Z,0.63
2022-10-05T17:20:11.080Z,0.85
2022-10-05T17:23:04.884Z,0.17
2022-10-05T17:25:52.908Z,0.40
2022-10-05T17:28:20.359Z,1.20
2022-10-05T17:31:07.706Z,0.47
2022-10-05T17:34:03.902Z,0.88
2022-10-05T17:36:40.385Z,0.68
2022-10-05T17:39:24.222Z,0.75
2022-10-05T17:41:53.780Z,0.40
2022-10-05T17:44:23.225Z,1.35
2022-10-05T17:46:54.265Z,0.70
2022-10-05T17:50:06.059Z,2.33
2022-10-05T17:52:33.642Z,1.25
2022-10-05T17:55:10.990Z,1.42
2022-10-05T17:57:38.300Z,1.05
2022-10-05T18:00:27.293Z,0.95
2022-10-05T18:02:57.731Z,2.40
2022-10-05T18:05:37.027Z,3.80
2022-10-05T18:08:13.901Z,2.08
2022-10-05T18:11:06.454Z,2.28
2022-10-05T18:13:36.931Z,3.50
2022-10-05T18:16:07.146Z,2.27
2022-10-05T18:18:43.817Z,3.00
2022-10-05T18:21:17.698Z,2.55
2022-10-05T18:23:59.845Z,1.40
2022-10-05T18:26:58.491Z,1.65
2022-10-05T18:29:31.825Z,1.52
2022-10-05T18:32:09.259Z,2.80
2022-10-05T18:34:53.737Z,2.65
2022-10-05T18:37:36.614Z,1.38
2022-10-05T18:40:25.573Z,2.30
2022-10-05T18:43:13.004Z,2.38
2022-10-05T18:46:06.994Z,2.20
2022-10-05T18:48:55.605Z,2.00
2022-10-05T18:51:35.013Z,2.00
2022-10-05T18:54:05.240Z,2.40
2022-10-05T18:56:52.547Z,1.38
2022-10-05T18:59:38.607Z,2.22
2022-10-05T19:02:38.518Z,2.22
2022-10-05T19:05:46.507Z,2.95
2022-10-05T19:08:37.222Z,2.30
2022-10-05T19:11:31.453Z,2.70
2022-10-05T19:14:19.378Z,2.42
2022-10-05T19:16:52.842Z,1.40
2022-10-05T19:19:29.317Z,2.22
2022-10-05T19:21:58.277Z,3.33
2022-10-05T19:24:36.767Z,1.65
2022-10-05T19:27:17.423Z,2.47
2022-10-05T19:30:10.666Z,2.28
2022-10-05T19:32:54.263Z,2.72
2022-10-05T19:35:58.326Z,2.92
2022-10-05T19:38:50.742Z,2.85
2022-10-05T19:41:33.267Z,3.75
2022-10-05T19:44:13.028Z,2.00
2022-10-05T19:46:55.324Z,2.13
2022-10-05T19:49:49.360Z,2.47
2022-10-05T19:52:22.805Z,4.13
2022-10-05T19:55:02.295Z,2.50
2022-10-05T19:57:31.443Z,2.67
2022-10-05T19:59:59.481Z,3.67
2022-10-05T20:02:27.312Z,3.20
2022-10-05T20:05:06.898Z,2.45
2022-10-05T20:07:34.962Z,1.95
2022-10-05T20:10:24.447Z,3.08
2022-10-05T20:12:54.913Z,2.33
2022-10-05T20:16:02.498Z,2.50
2022-10-05T20:18:48.167Z,2.97
2022-10-05T20:21:46.724Z,1.77
2022-10-05T20:24:18.450Z,2.28
2022-10-05T20:26:57.705Z,3.38
2022-10-05T20:29:25.445Z,3.25
2022-10-05T20:31:52.894Z,2.97
2022-10-05T20:34:20.513Z,2.50
2022-10-05T20:36:51.664Z,3.03
2022-10-05T20:39:19.258Z,3.65
2022-10-05T20:41:47.188Z,1.92
2022-10-05T20:44:14.703Z,3.08
2022-10-05T20:46:42.152Z,2.25
2022-10-05T20:49:10.125Z,2.40
2022-10-05T20:51:38.881Z,3.92
2022-10-05T20:54:07.605Z,1.88
2022-10-05T20:56:35.284Z,2.55
2022-10-05T20:59:02.674Z,3.10
2022-10-05T21:01:30.113Z,1.95
2022-10-05T21:03:57.958Z,2.75
2022-10-05T21:06:25.553Z,0.77
2022-10-05T21:08:52.825Z,1.05
2022-10-05T21:11:20.776Z,1.55
2022-10-05T21:13:48.022Z,0.40
2022-10-05T21:16:17.716Z,1.40
2022-10-05T21:18:47.604Z,1.30
2022-10-05T21:21:18.395Z,1.05
2022-10-05T21:23:47.353Z,1.48
2022-10-05T21:26:15.332Z,0.65
2022-10-05T21:28:42.981Z,1.13
2022-10-05T21:31:10.642Z,1.30
2022-10-05T21:33:38.022Z,0.65
2022-10-05T21:36:05.498Z,0.75
2022-10-05T21:38:32.778Z,0.75
2022-10-05T21:41:00.052Z,0.30
2022-10-05T21:43:27.601Z,0.10
2022-10-05T21:45:55.589Z,0.68
2022-10-05T21:48:23.816Z,1.40
2022-10-05T21:50:51.222Z,0.45
2022-10-05T21:53:22.783Z,1.05
2022-10-05T21:55:51.882Z,1.10
2022-10-05T21:58:22.282Z,0.43
2022-10-05T22:00:49.641Z,0.55
2022-10-05T22:03:16.943Z,1.35
2022-10-05T22:05:44.466Z,0.80
2022-10-05T22:08:24.963Z,1.08
2022-10-05T22:10:52.628Z,0.75
2022-10-05T22:13:21.420Z,1.10
2022-10-05T22:15:48.736Z,1.02
2022-10-05T22:18:18.060Z,0.30
2022-10-05T22:20:45.993Z,1.45
2022-10-05T22:23:13.287Z,0.30
2022-10-05T22:25:40.960Z,0.90
2022-10-05T22:28:10.893Z,0.20
2022-10-05T22:30:39.006Z,0.30
2022-10-05T22:33:06.320Z,0.40
2022-10-05T22:35:35.187Z,0.43
2022-10-05T22:38:04.023Z,0.30
2022-10-05T22:40:31.577Z,0.77
2022-10-05T22:42:58.904Z,0.85
2022-10-05T22:45:30.329Z,1.38
2022-10-05T22:47:59.657Z,1.13
2022-10-05T22:50:27.232Z,0.95
2022-10-05T22:52:54.616Z,0.65
2022-10-05T22:55:21.939Z,0.40
2022-10-05T22:57:49.235Z,0.25
2022-10-05T23:00:17.522Z,0.98
2022-10-05T23:02:45.100Z,1.75
2022-10-05T23:05:13.124Z,0.47
2022-10-05T23:07:42.644Z,1.40
2022-10-05T23:10:13.646Z,1.20
2022-10-05T23:12:44.863Z,1.10
2022-10-05T23:15:12.166Z,0.75
2022-10-05T23:17:39.642Z,0.20
2022-10-05T23:20:07.940Z,0.47
2022-10-05T23:22:39.118Z,0.93
2022-10-05T23:25:07.701Z,0.45
2022-10-05T23:27:39.403Z,0.47
2022-10-05T23:30:09.135Z,0.98
2022-10-05T23:32:41.564Z,0.20
2022-10-05T23:35:10.996Z,0.95
2022-10-05T23:37:43.904Z,1.25
2022-10-05T23:40:13.440Z,0.50
2022-10-05T23:42:41.482Z,0.65
2022-10-05T23:45:10.407Z,0.28
2022-10-05T23:47:38.872Z,0.73
2022-10-05T23:50:07.620Z,0.20
2022-10-05T23:52:35.451Z,0.57
2022-10-05T23:55:04.796Z,0.70
2022-10-05T23:57:32.115Z,0.63
2022-10-05T23:59:59.461Z,0.90
